createdAt,value
2022-10-08T00:01:20.109Z,2.25
2022-10-08T00:03:50.530Z,3.72
2022-10-08T00:06:23.619Z,4.22
2022-10-08T00:08:53.805Z,4.03
2022-10-08T00:11:27.114Z,4.00
2022-10-08T00:13:55.523Z,3.33
2022-10-08T00:16:30.627Z,3.40
2022-10-08T00:19:01.448Z,3.70
2022-10-08T00:21:32.335Z,3.17
2022-10-08T00:24:01.537Z,3.53
2022-10-08T00:26:31.396Z,3.78
2022-10-08T00:29:02.728Z,3.33
2022-10-08T00:31:40.540Z,3.90
2022-10-08T00:34:10.725Z,3.20
2022-10-08T00:36:40.153Z,4.82
2022-10-08T00:39:14.852Z,3.42
2022-10-08T00:41:44.253Z,4.70
2022-10-08T00:44:55.502Z,3.88
2022-10-08T00:47:40.190Z,3.55
2022-10-08T00:50:16.302Z,4.45
2022-10-08T00:52:47.667Z,4.13
2022-10-08T00:55:18.307Z,5.95
2022-10-08T00:57:45.940Z,3.28
2022-10-08T01:00:18.265Z,3.80
2022-10-08T01:02:46.277Z,3.95
2022-10-08T01:05:19.823Z,2.97
2022-10-08T01:07:53.853Z,2.72
2022-10-08T01:10:33.562Z,3.92
2022-10-08T01:13:22.037Z,3.20
2022-10-08T01:16:06.136Z,3.25
2022-10-08T01:18:48.600Z,3.05
2022-10-08T01:21:27.641Z,3.45
2022-10-08T01:24:52.276Z,2.90
2022-10-08T01:27:31.173Z,3.15
2022-10-08T01:30:04.479Z,5.32
2022-10-08T01:32:40.410Z,3.78
2022-10-08T01:35:13.721Z,5.28
2022-10-08T01:37:43.655Z,4.30
2022-10-08T01:40:21.061Z,3.50
2022-10-08T01:42:50.829Z,4.15
2022-10-08T01:45:24.969Z,5.35
2022-10-08T01:47:57.054Z,3.38
2022-10-08T01:50:30.754Z,4.03
2022-10-08T01:53:15.905Z,3.72
2022-10-08T01:55:49.002Z,3.55
2022-10-08T01:58:20.527Z,4.15
2022-10-08T02:00:49.931Z,4.18
2022-10-08T02:03:17.333Z,3.92
2022-10-08T02:05:49.282Z,3.60
2022-10-08T02:08:16.952Z,4.28
2022-10-08T02:10:46.273Z,3.60
2022-10-08T02:13:13.701Z,3.60
2022-10-08T02:16:00.947Z,3.97
2022-10-08T02:18:40.967Z,3.05
2022-10-08T02:21:19.122Z,3.35
2022-10-08T02:23:56.478Z,3.95
2022-10-08T02:26:30.996Z,3.70
2022-10-08T02:29:14.745Z,3.42
2022-10-08T02:31:49.696Z,3.25
2022-10-08T02:34:35.911Z,1.95
2022-10-08T02:37:12.025Z,3.50
2022-10-08T02:39:46.957Z,2.83
2022-10-08T02:42:18.656Z,3.25
2022-10-08T02:44:57.721Z,3.35
2022-10-08T02:47:28.903Z,3.30
2022-10-08T02:50:03.885Z,5.93
2022-10-08T02:52:36.944Z,2.88
2022-10-08T02:55:28.807Z,2.90
2022-10-08T02:58:07.318Z,3.15
2022-10-08T03:00:40.875Z,3.67
2022-10-08T03:03:12.637Z,3.40
2022-10-08T03:05:44.974Z,3.78
2022-10-08T03:08:14.782Z,3.28
2022-10-08T03:10:44.341Z,3.63
2022-10-08T03:13:12.910Z,4.95
2022-10-08T03:15:41.462Z,4.25
2022-10-08T03:18:11.873Z,3.45
2022-10-08T03:20:51.490Z,5.15
2022-10-08T03:23:19.107Z,3.65
2022-10-08T03:25:46.480Z,3.63
2022-10-08T03:28:14.313Z,3.00
2022-10-08T03:30:41.675Z,3.30
2022-10-08T03:33:09.018Z,2.75
2022-10-08T03:35:36.283Z,3.58
2022-10-08T03:38:03.575Z,3.63
2022-10-08T03:40:30.905Z,3.33
2022-10-08T03:42:58.218Z,2.97
2022-10-08T03:45:25.501Z,3.75
2022-10-08T03:47:52.836Z,3.17
2022-10-08T03:50:21.574Z,3.17
2022-10-08T03:52:49.331Z,3.78
2022-10-08T03:55:17.273Z,4.38
2022-10-08T03:57:44.542Z,2.83
2022-10-08T04:00:12.468Z,3.58
2022-10-08T04:02:39.836Z,3.30
2022-10-08T04:05:07.638Z,3.55
2022-10-08T04:07:34.898Z,4.32
2022-10-08T04:10:02.360Z,3.47
2022-10-08T04:12:29.931Z,3.60
2022-10-08T04:14:57.614Z,2.75
2022-10-08T04:17:25.244Z,3.17
2022-10-08T04:19:52.857Z,2.92
2022-10-08T04:22:20.085Z,2.60
2022-10-08T04:24:47.364Z,2.33
2022-10-08T04:27:14.618Z,4.18
2022-10-08T04:29:41.874Z,3.08
2022-10-08T04:32:09.563Z,4.32
2022-10-08T04:34:36.730Z,3.35
2022-10-08T04:37:04.062Z,2.53
2022-10-08T04:39:31.327Z,2.60
2022-10-08T04:41:58.736Z,3.20
2022-10-08T04:44:25.997Z,3.13
2022-10-08T04:46:53.350Z,2.85
2022-10-08T04:49:20.687Z,3.58
2022-10-08T04:51:47.975Z,3.00
2022-10-08T04:54:15.332Z,2.53
2022-10-08T04:56:42.620Z,2.90
2022-10-08T04:59:09.958Z,2.65
2022-10-08T05:01:37.393Z,3.33
2022-10-08T05:04:04.741Z,2.80
2022-10-08T05:06:32.840Z,2.90
2022-10-08T05:09:04.368Z,2.75
2022-10-08T05:11:32.921Z,3.88
2022-10-08T05:14:00.730Z,3.08
2022-10-08T05:16:28.469Z,4.13
2022-10-08T05:18:56.675Z,3.67
2022-10-08T05:21:27.837Z,3.17
2022-10-08T05:23:56.379Z,3.08
2022-10-08T05:26:46.690Z,2.90
2022-10-08T05:29:14.052Z,3.78
2022-10-08T05:31:41.360Z,3.40
2022-10-08T05:34:09.229Z,3.00
2022-10-08T05:36:36.560Z,2.28
2022-10-08T05:39:05.335Z,3.38
2022-10-08T05:41:35.323Z,2.88
2022-10-08T05:44:03.596Z,2.95
2022-10-08T05:46:33.098Z,3.92
2022-10-08T05:49:02.517Z,3.25
2022-10-08T05:51:30.602Z,2.95
2022-10-08T05:53:59.887Z,2.80
2022-10-08T05:56:28.456Z,3.75
2022-10-08T05:58:55.728Z,3.30
2022-10-08T06:01:29.073Z,4.45
2022-10-08T06:04:00.498Z,3.47
2022-10-08T06:06:29.500Z,2.83
2022-10-08T06:08:59.154Z,3.30
2022-10-08T06:11:27.208Z,2.97
2022-10-08T06:13:56.265Z,3.00
2022-10-08T06:16:24.523Z,3.05
2022-10-08T06:18:52.181Z,2.65
2022-10-08T06:21:22.684Z,3.40
2022-10-08T06:23:55.134Z,3.53
2022-10-08T06:26:26.290Z,3.03
2022-10-08T06:28:54.580Z,3.97
2022-10-08T06:31:22.422Z,3.45
2022-10-08T06:33:50.162Z,3.05
2022-10-08T06:36:23.717Z,3.35
2022-10-08T06:38:54.161Z,2.72
2022-10-08T06:41:21.862Z,3.30
2022-10-08T06:43:49.543Z,2.03
2022-10-08T06:46:18.018Z,3.13
2022-10-08T06:48:45.894Z,2.83
2022-10-08T06:51:16.631Z,2.72
2022-10-08T06:53:45.174Z,4.35
2022-10-08T06:56:15.238Z,2.22
2022-10-08T06:58:43.823Z,3.85
2022-10-08T07:01:13.461Z,3.17
2022-10-08T07:03:40.914Z,2.70
2022-10-08T07:06:12.211Z,2.55
2022-10-08T07:08:40.097Z,2.60
2022-10-08T07:11:13.733Z,3.08
2022-10-08T07:13:41.314Z,2.22
2022-10-08T07:16:20.749Z,2.72
2022-10-08T07:18:53.082Z,2.72
2022-10-08T07:21:21.884Z,2.42
2022-10-08T07:23:49.863Z,2.78
2022-10-08T07:26:25.974Z,2.40
2022-10-08T07:28:59.657Z,2.95
2022-10-08T07:31:33.005Z,2.58
2022-10-08T07:34:01.836Z,3.00
2022-10-08T07:36:30.182Z,2.15
2022-10-08T07:39:02.880Z,2.13
2022-10-08T07:41:30.535Z,3.42
2022-10-08T07:43:59.936Z,2.45
2022-10-08T07:46:29.155Z,1.60
2022-10-08T07:48:59.284Z,2.35
2022-10-08T07:51:34.596Z,2.28
2022-10-08T07:54:03.745Z,2.60
2022-10-08T07:56:32.869Z,2.33
2022-10-08T07:59:02.050Z,3.63
2022-10-08T08:01:31.049Z,3.60
2022-10-08T08:04:04.805Z,2.17
2022-10-08T08:06:34.348Z,3.25
2022-10-08T08:09:02.224Z,1.90
2022-10-08T08:11:29.915Z,2.63
2022-10-08T08:13:57.322Z,2.40
2022-10-08T08:16:27.246Z,2.35
2022-10-08T08:18:57.440Z,2.20
2022-10-08T08:21:33.592Z,1.90
2022-10-08T08:24:12.198Z,2.55
2022-10-08T08:26:41.454Z,2.30
2022-10-08T08:29:12.653Z,2.58
2022-10-08T08:31:43.566Z,2.75
2022-10-08T08:34:14.117Z,2.50
2022-10-08T08:36:43.817Z,2.38
2022-10-08T08:39:19.446Z,2.65
2022-10-08T08:42:05.409Z,2.03
2022-10-08T08:44:40.760Z,2.13
2022-10-08T08:47:23.544Z,2.25
2022-10-08T08:49:55.318Z,2.42
2022-10-08T08:52:28.942Z,2.20
2022-10-08T08:54:56.388Z,2.78
2022-10-08T08:57:47.017Z,2.47
2022-10-08T09:00:23.975Z,3.13
2022-10-08T09:02:58.830Z,2.17
2022-10-08T09:05:31.149Z,2.92
2022-10-08T09:08:23.885Z,2.80
2022-10-08T09:10:59.931Z,2.22
2022-10-08T09:13:35.763Z,4.18
2022-10-08T09:16:03.697Z,2.17
2022-10-08T09:18:32.377Z,2.33
2022-10-08T09:20:59.862Z,2.22
2022-10-08T09:23:28.198Z,1.83
2022-10-08T09:26:07.750Z,2.50
2022-10-08T09:28:49.397Z,2.83
2022-10-08T09:31:38.849Z,2.30
2022-10-08T09:34:16.584Z,2.58
2022-10-08T09:36:51.013Z,2.22
2022-10-08T09:39:24.929Z,2.20
2022-10-08T09:42:07.253Z,1.50
2022-10-08T09:44:49.339Z,2.13
2022-10-08T09:47:21.772Z,2.63
2022-10-08T09:50:12.666Z,2.78
2022-10-08T09:52:40.881Z,3.03
2022-10-08T09:55:17.020Z,2.65
2022-10-08T09:57:48.333Z,3.47
2022-10-08T10:00:39.606Z,2.85
2022-10-08T10:03:16.513Z,2.70
2022-10-08T10:05:50.387Z,2.08
2022-10-08T10:08:45.831Z,3.33
2022-10-08T10:11:19.243Z,2.70
2022-10-08T10:13:49.562Z,2.30
2022-10-08T10:16:32.700Z,2.33
2022-10-08T10:19:07.419Z,2.72
2022-10-08T10:21:50.007Z,1.70
2022-10-08T10:24:35.891Z,1.40
2022-10-08T10:27:15.498Z,3.17
2022-10-08T10:30:02.225Z,2.70
2022-10-08T10:32:37.607Z,1.80
2022-10-08T10:35:19.238Z,2.08
2022-10-08T10:37:55.913Z,2.08
2022-10-08T10:40:31.254Z,1.63
2022-10-08T10:43:18.239Z,1.40
2022-10-08T10:45:52.069Z,1.60
2022-10-08T10:48:19.555Z,2.17
2022-10-08T10:50:55.650Z,1.88
2022-10-08T10:53:40.124Z,2.15
2022-10-08T10:56:18.369Z,2.17
2022-10-08T10:59:07.974Z,2.00
2022-10-08T11:02:00.669Z,1.70
2022-10-08T11:04:45.893Z,2.50
2022-10-08T11:07:34.448Z,2.72
2022-10-08T11:10:45.902Z,2.22
2022-10-08T11:13:46.346Z,1.58
2022-10-08T11:16:31.895Z,1.55
2022-10-08T11:19:02.060Z,1.80
2022-10-08T11:21:41.417Z,3.78
2022-10-08T11:24:14.301Z,2.15
2022-10-08T11:27:16.518Z,1.88
2022-10-08T11:30:03.092Z,2.25
2022-10-08T11:32:32.583Z,2.42
2022-10-08T11:35:25.813Z,2.17
2022-10-08T11:37:58.849Z,2.00
2022-10-08T11:40:32.326Z,1.75
2022-10-08T11:43:21.588Z,1.88
2022-10-08T11:46:31.174Z,2.50
2022-10-08T11:48:58.645Z,2.15
2022-10-08T11:51:25.821Z,2.00
2022-10-08T11:54:20.439Z,1.98
2022-10-08T11:56:51.583Z,1.35
2022-10-08T11:59:34.005Z,1.67
2022-10-08T12:02:05.286Z,2.03
2022-10-08T12:04:37.880Z,2.25
2022-10-08T12:07:21.223Z,1.45
2022-10-08T12:10:06.956Z,1.60
2022-10-08T12:12:49.864Z,1.65
2022-10-08T12:15:23.150Z,1.33
2022-10-08T12:17:58.969Z,1.85
2022-10-08T12:20:32.917Z,1.90
2022-10-08T12:23:09.277Z,2.08
2022-10-08T12:26:00.913Z,1.63
2022-10-08T12:28:28.254Z,1.73
2022-10-08T12:31:01.715Z,1.73
2022-10-08T12:33:30.467Z,1.90
2022-10-08T12:36:12.957Z,1.55
2022-10-08T12:38:51.105Z,1.80
2022-10-08T12:41:28.267Z,1.63
2022-10-08T12:44:21.939Z,1.85
2022-10-08T12:47:05.894Z,1.42
2022-10-08T12:49:51.680Z,1.20
2022-10-08T12:52:20.364Z,1.52
2022-10-08T12:54:57.665Z,1.52
2022-10-08T13:00:05.455Z,1.70
2022-10-08T13:02:42.646Z,2.00
2022-10-08T13:07:54.826Z,1.80
2022-10-08T13:10:28.457Z,2.08
2022-10-08T13:13:00.352Z,1.63
2022-10-08T13:15:28.556Z,2.20
2022-10-08T13:17:55.818Z,2.75
2022-10-08T13:20:24.816Z,2.72
2022-10-08T13:22:52.725Z,1.77
2022-10-08T13:25:38.906Z,2.00
2022-10-08T13:28:36.058Z,1.85
2022-10-08T13:31:22.910Z,1.60
2022-10-08T13:33:53.167Z,1.48
2022-10-08T13:36:23.468Z,1.50
2022-10-08T13:38:50.887Z,1.60
2022-10-08T13:41:26.518Z,1.98
2022-10-08T13:43:54.026Z,1.95
2022-10-08T13:46:21.554Z,2.55
2022-10-08T13:48:48.896Z,1.70
2022-10-08T13:51:16.322Z,1.63
2022-10-08T13:53:45.560Z,1.98
2022-10-08T13:56:13.779Z,1.40
2022-10-08T13:58:41.124Z,2.22
2022-10-08T14:01:08.426Z,1.80
2022-10-08T14:03:35.803Z,1.90
2022-10-08T14:06:03.253Z,1.65
2022-10-08T14:08:31.364Z,2.05
2022-10-08T14:10:59.802Z,2.05
2022-10-08T14:13:29.283Z,2.17
2022-10-08T14:15:56.579Z,3.25
2022-10-08T14:18:23.958Z,2.15
2022-10-08T14:20:51.697Z,1.58
2022-10-08T14:23:20.209Z,1.33
2022-10-08T14:25:47.547Z,1.83
2022-10-08T14:28:14.871Z,1.52
2022-10-08T14:30:42.125Z,1.70
2022-10-08T14:33:11.696Z,1.75
2022-10-08T14:35:39.566Z,2.50
2022-10-08T14:38:08.613Z,1.90
2022-10-08T14:40:35.959Z,1.50
2022-10-08T14:43:03.214Z,1.73
2022-10-08T14:45:30.509Z,1.80
2022-10-08T14:47:57.776Z,1.70
2022-10-08T14:50:25.029Z,1.65
2022-10-08T14:52:52.524Z,1.63
2022-10-08T14:55:20.054Z,2.42
2022-10-08T14:57:47.329Z,1.85
2022-10-08T15:00:14.950Z,1.40
2022-10-08T15:02:42.191Z,1.17
2022-10-08T15:05:09.541Z,1.30
2022-10-08T15:07:37.914Z,1.88
2022-10-08T15:10:05.595Z,1.95
2022-10-08T15:12:33.003Z,1.83
2022-10-08T15:15:00.304Z,1.70
2022-10-08T15:17:27.593Z,2.85
2022-10-08T15:19:54.870Z,2.33
2022-10-08T15:22:22.120Z,1.55
2022-10-08T15:24:49.490Z,2.28
2022-10-08T15:27:20.571Z,2.78
2022-10-08T15:29:48.466Z,1.77
2022-10-08T15:32:15.960Z,1.48
2022-10-08T15:34:43.294Z,2.38
2022-10-08T15:37:10.767Z,1.25
2022-10-08T15:39:38.351Z,1.27
2022-10-08T15:42:06.275Z,1.90
2022-10-08T15:44:34.295Z,1.90
2022-10-08T15:47:06.858Z,2.47
2022-10-08T15:49:45.806Z,1.98
2022-10-08T15:52:15.862Z,1.88
2022-10-08T15:54:43.951Z,1.67
2022-10-08T15:57:12.792Z,1.92
2022-10-08T15:59:40.545Z,1.80
2022-10-08T16:02:09.836Z,1.35
2022-10-08T16:04:40.381Z,1.85
2022-10-08T16:07:08.901Z,1.55
2022-10-08T16:09:36.187Z,1.48
2022-10-08T16:12:03.643Z,1.25
2022-10-08T16:14:30.953Z,1.45
2022-10-08T16:16:58.431Z,1.15
2022-10-08T16:19:26.853Z,2.38
2022-10-08T16:21:57.409Z,1.67
2022-10-08T16:24:24.860Z,1.80
2022-10-08T16:26:53.802Z,2.55
2022-10-08T16:29:21.305Z,1.90
2022-10-08T16:31:48.904Z,1.50
2022-10-08T16:34:18.945Z,1.67
2022-10-08T16:36:48.243Z,1.70
2022-10-08T16:39:18.356Z,1.88
2022-10-08T16:41:47.222Z,2.28
2022-10-08T16:44:16.714Z,2.55
2022-10-08T16:46:48.424Z,2.05
2022-10-08T16:49:24.582Z,1.30
2022-10-08T16:51:58.728Z,1.80
2022-10-08T16:54:26.770Z,1.45
2022-10-08T16:56:54.636Z,1.70
2022-10-08T16:59:24.683Z,3.20
2022-10-08T17:01:54.219Z,3.00
2022-10-08T17:04:23.641Z,2.63
2022-10-08T17:06:51.166Z,3.05
2022-10-08T17:09:18.477Z,2.13
2022-10-08T17:11:45.838Z,2.20
2022-10-08T17:14:14.424Z,2.75
2022-10-08T17:16:43.408Z,2.53
2022-10-08T17:19:11.334Z,2.53
2022-10-08T17:21:38.727Z,2.72
2022-10-08T17:24:06.851Z,2.08
2022-10-08T17:26:35.555Z,2.20
2022-10-08T17:29:08.468Z,2.45
2022-10-08T17:31:36.681Z,3.88
2022-10-08T17:34:04.707Z,3.90
2022-10-08T17:36:34.605Z,3.63
2022-10-08T17:39:05.370Z,3.20
2022-10-08T17:41:34.949Z,3.65
2022-10-08T17:44:04.554Z,4.47
2022-10-08T17:46:37.847Z,3.35
2022-10-08T17:49:06.197Z,3.50
2022-10-08T17:51:33.570Z,3.20
2022-10-08T17:54:11.233Z,2.40
2022-10-08T17:56:38.861Z,2.90
2022-10-08T17:59:06.373Z,3.60
2022-10-08T18:01:41.329Z,3.35
2022-10-08T18:04:12.979Z,3.30
2022-10-08T18:06:41.666Z,3.53
2022-10-08T18:09:12.717Z,4.00
2022-10-08T18:11:42.306Z,3.83
2022-10-08T18:14:09.849Z,3.20
2022-10-08T18:16:37.189Z,3.70
2022-10-08T18:19:08.752Z,4.57
2022-10-08T18:21:36.461Z,4.07
2022-10-08T18:24:04.586Z,3.70
2022-10-08T18:26:34.765Z,4.05
2022-10-08T18:29:11.622Z,5.70
2022-10-08T18:31:41.218Z,5.53
2022-10-08T18:34:12.571Z,4.53
2022-10-08T18:36:40.390Z,5.13
2022-10-08T18:39:16.532Z,6.03
2022-10-08T18:41:48.962Z,5.03
2022-10-08T18:44:26.525Z,4.38
2022-10-08T18:46:53.894Z,5.50
2022-10-08T18:49:30.158Z,7.20
2022-10-08T18:51:58.107Z,7.88
2022-10-08T18:54:25.845Z,8.73
2022-10-08T18:56:53.351Z,9.32
2022-10-08T18:59:20.708Z,8.90
2022-10-08T19:01:49.459Z,9.85
2022-10-08T19:04:21.696Z,7.53
2022-10-08T19:06:50.845Z,9.95
2022-10-08T19:09:18.714Z,8.13
2022-10-08T19:11:51.592Z,8.35
2022-10-08T19:14:20.801Z,8.18
2022-10-08T19:16:48.783Z,7.85
2022-10-08T19:19:20.238Z,7.20
2022-10-08T19:21:48.760Z,6.20
2022-10-08T19:24:18.818Z,5.32
2022-10-08T19:26:47.029Z,5.65
2022-10-08T19:29:20.869Z,5.25
2022-10-08T19:31:49.985Z,5.60
2022-10-08T19:34:25.934Z,5.50
2022-10-08T19:36:53.516Z,5.50
2022-10-08T19:39:26.108Z,5.40
2022-10-08T19:41:53.666Z,5.47
2022-10-08T19:44:21.332Z,5.03
2022-10-08T19:46:51.014Z,6.05
2022-10-08T19:49:18.849Z,5.70
2022-10-08T19:51:46.745Z,5.72
2022-10-08T19:54:15.260Z,6.07
2022-10-08T19:56:43.176Z,6.55
2022-10-08T19:59:12.186Z,6.13
2022-10-08T20:01:41.296Z,6.28
2022-10-08T20:04:09.682Z,6.60
2022-10-08T20:06:39.578Z,7.70
2022-10-08T20:09:11.730Z,7.20
2022-10-08T20:11:39.839Z,5.82
2022-10-08T20:14:07.448Z,5.32
2022-10-08T20:16:37.178Z,5.53
2022-10-08T20:19:24.994Z,6.07
2022-10-08T20:21:55.781Z,5.28
2022-10-08T20:24:23.309Z,5.05
2022-10-08T20:26:50.746Z,6.40
2022-10-08T20:29:20.621Z,4.93
2022-10-08T20:31:50.707Z,5.35
2022-10-08T20:34:22.098Z,5.93
2022-10-08T20:36:50.386Z,6.05
2022-10-08T20:39:20.277Z,5.45
2022-10-08T20:41:48.232Z,4.78
2022-10-08T20:44:15.984Z,4.38
2022-10-08T20:46:43.780Z,5.85
2022-10-08T20:49:12.931Z,6.97
2022-10-08T20:51:41.924Z,5.47
2022-10-08T20:54:11.942Z,5.40
2022-10-08T20:56:40.547Z,5.68
2022-10-08T20:59:15.822Z,5.25
2022-10-08T21:01:43.406Z,5.47
2022-10-08T21:04:11.099Z,6.05
2022-10-08T21:06:41.751Z,5.82
2022-10-08T21:09:09.561Z,3.78
2022-10-08T21:11:37.602Z,4.13
2022-10-08T21:14:06.887Z,4.45
2022-10-08T21:16:37.349Z,5.80
2022-10-08T21:19:09.969Z,5.18
2022-10-08T21:21:37.277Z,4.53
2022-10-08T21:24:04.662Z,4.05
2022-10-08T21:26:38.178Z,4.53
2022-10-08T21:29:08.302Z,3.92
2022-10-08T21:31:37.993Z,5.25
2022-10-08T21:34:06.010Z,5.30
2022-10-08T21:36:36.556Z,5.53
2022-10-08T21:39:06.594Z,5.10
2022-10-08T21:41:36.436Z,4.38
2022-10-08T21:44:06.621Z,4.45
2022-10-08T21:46:37.013Z,4.35
2022-10-08T21:49:11.051Z,5.30
2022-10-08T21:51:38.947Z,4.05
2022-10-08T21:54:07.402Z,4.25
2022-10-08T21:56:37.665Z,4.70
2022-10-08T21:59:06.760Z,4.85
2022-10-08T22:01:43.130Z,5.43
2022-10-08T22:04:11.898Z,4.63
2022-10-08T22:06:42.240Z,3.92
2022-10-08T22:09:24.290Z,4.13
2022-10-08T22:11:52.886Z,4.35
2022-10-08T22:14:20.685Z,4.15
2022-10-08T22:16:48.623Z,4.25
2022-10-08T22:19:16.386Z,3.40
2022-10-08T22:21:44.383Z,3.78
2022-10-08T22:24:11.994Z,4.70
2022-10-08T22:26:42.149Z,4.25
2022-10-08T22:29:09.902Z,4.93
2022-10-08T22:31:37.858Z,3.50
2022-10-08T22:34:05.742Z,4.13
2022-10-08T22:36:36.294Z,3.80
2022-10-08T22:39:03.858Z,4.20
2022-10-08T22:41:32.338Z,4.43
2022-10-08T22:44:00.633Z,3.72
2022-10-08T22:46:31.208Z,3.97
2022-10-08T22:49:04.719Z,4.25
2022-10-08T22:51:32.764Z,7.32
2022-10-08T22:54:00.092Z,5.03
2022-10-08T22:56:29.807Z,3.58
2022-10-08T22:58:59.278Z,4.43
2022-10-08T23:01:28.226Z,4.50
2022-10-08T23:03:56.179Z,3.70
2022-10-08T23:06:25.753Z,4.03
2022-10-08T23:08:55.866Z,4.40
2022-10-08T23:11:23.553Z,4.43
2022-10-08T23:13:55.654Z,4.72
2022-10-08T23:16:23.746Z,3.88
2022-10-08T23:18:56.786Z,3.95
2022-10-08T23:21:24.827Z,4.05
2022-10-08T23:23:53.793Z,4.35
2022-10-08T23:26:22.104Z,5.15
2022-10-08T23:28:52.735Z,4.60
2022-10-08T23:31:22.573Z,3.35
2022-10-08T23:33:52.739Z,5.28
2022-10-08T23:36:23.387Z,5.60
2022-10-08T23:38:51.121Z,4.03
2022-10-08T23:41:18.987Z,5.13
2022-10-08T23:43:47.984Z,4.82
2022-10-08T23:46:18.070Z,4.05
2022-10-08T23:48:45.458Z,5.07
2022-10-08T23:51:14.627Z,4.95
2022-10-08T23:53:43.342Z,5.20
2022-10-08T23:56:11.560Z,6.47
2022-10-08T23:58:39.789Z,4.22
